Beardsley, South Dakota
Current Conditions -  °F | °C
As of 5:53 AM on Friday 24 Oct 2014 (Local Time) from KMHE Reporting Station
Clear Clear  
Wind Chill: 43°   Ceiling: Unl
Heat Index: 47°   Visibility: 10mi
Dew Point: 41°   Wind: 9mph
Humidity: 80%   Direction: 270°W
Pressure: 29.86"   Gusts: NA
Location:  43.4018°N, 97.9102°W
Report Text: KMHE 241053Z AUTO 27008KT 10SM CLR 08/05 A2986 RMK AO2 SLP110 T00830050
Loading
Personal Weather Stations






























Interactive Weather Map
Tropical Storm Tracking
New forecast layout! Learn more

10-Day Weather Forecast

Advertisements
Track Severe Weather on mobile